Belmar, NJ (07719)

10:26 PM EDT on September 04, 2015 (GMT -0400)
Shark River Manor, Wall Township, N.J. | | Change Station
CLOSE
Current Station
Personal Weather Station
Location: Wall Township, NJ
Elevation: 52 ft
Nearby Weather Stations

Elev 52 ft 40.18 °N, 74.05 °W | Updated 6 seconds ago

Overcast
Overcast
72.3 °F
Feels Like 71 °F
N
3.8
Wind Variable Wind from SSE
Gusts 6.7 mph

Today
High -- | Low -- °F
--% Chance of Precip.
Yesterday
High -- | Low -- °F
Precip. -- in
6:26 AM 7:23 PM
Waning Gibbous, 53% visible
Pressure 30.19 in
Visibility 10.0 miles
Clouds Overcast 1700 ft
Heat Index 71 °F
Dew Point 67 °F
Humidity 84%
Rainfall in
Snow Depth Not available.
UV 0 out of 12
Pollen 8.70 out of 12
Air Quality Not available.
Flu Activity Not available.
METAR KBLM 050215Z AUTO 08011KT 050V110 10SM OVC017 23/17 A3019 RMK AO1
Pressure 30.19 in
Visibility 10.0 miles
Clouds Overcast 1700 ft
Heat Index 71 °F
Dew Point 67 °F
Humidity 84%
Rainfall in
Snow Depth Not available.
UV 0 out of 12
Pollen 8.70 out of 12
Air Quality Not available.
Flu Activity Not available.
METAR KBLM 050215Z AUTO 08011KT 050V110 10SM OVC017 23/17 A3019 RMK AO1

10-Day Weather Forecast

×

Almanac

Astronomy

Sep. 04, 2015 Rise Set
Actual Time
Civil Twilight
Nautical Twilight
Astronomical Twilight
Moon
Length of Visible Light
Length of Day
Tomorrow will be .
, % of the Moon is Illuminated

Today's Extremes

State Highs State Lows

Community

WunderPhotos

Upload Photos

1,852,391 photos uploaded!

WunderBlogs® & News

Nearby

Air Quality

  Air Quality AQ Index Pollutant
Not available.

Snow Depth

Station Depth Elevation

Earthquake Activity

City Distance Mag. Time & Date
Minimum magnitude displayed is 2.5.

Coastal Water Temperatures

Place Temperature

Stations

Nearby Weather Stations

Station Location Temp. Windchill Dew Point Humidity Wind Precip. Elev Updated Type